CheckWX is a tool to help pilots better visualize weather data.  It is not intended as a substitute for an official pre-flight weather briefing.

03:42:12 UTC

KELA METAR
Eagle Lake Airport
Eagle Lake, Texas, USA
Current

27 mins ago

KELA 260315Z AUTO 15006KT 10SM CLR 24/22 A3003 RMK AO2 T02370216
Observed
May-26 @ 03:15 UTC
Wind
  • 150° at 6 KTS
Visibility
10 SM
Flight Rules
VFR
Cloud Levels
  • Clear skies
Temperature
24°C / 75°F
Dewpoint
22°C / 72°F
Humidity
89%
Altimeter
30.03" Hg
Pressure
1016.92 hPa
Previous

47 mins ago

KELA 260255Z AUTO 16006KT 10SM CLR 24/22 A3002 RMK AO2 T02420215
Observed
May-26 @ 02:55 UTC
Wind
  • 160° at 6 KTS
Visibility
10 SM
Flight Rules
VFR
Cloud Levels
  • Clear skies
Temperature
24°C / 75°F
Dewpoint
22°C / 72°F
Humidity
89%
Altimeter
30.02" Hg
Pressure
1016.62 hPa
Previous

1 hour ago

KELA 260235Z AUTO 16004KT 10SM CLR 24/22 A3003 RMK AO2 T02430215
Observed
May-26 @ 02:35 UTC
Wind
  • 160° at 4 KTS
Visibility
10 SM
Flight Rules
VFR
Cloud Levels
  • Clear skies
Temperature
24°C / 75°F
Dewpoint
22°C / 72°F
Humidity
89%
Altimeter
30.03" Hg
Pressure
1016.92 hPa